createdAt,value
2023-01-18T00:03:50.964Z,3.93
2023-01-18T00:08:55.672Z,3.80
2023-01-18T00:13:59.043Z,4.33
2023-01-18T00:19:03.903Z,4.63
2023-01-18T00:24:11.019Z,3.63
2023-01-18T00:29:15.109Z,4.47
2023-01-18T00:34:20.067Z,4.17
2023-01-18T00:39:23.639Z,3.93
2023-01-18T00:44:26.925Z,5.20
2023-01-18T00:49:31.823Z,4.30
2023-01-18T00:54:35.288Z,4.70
2023-01-18T00:59:38.814Z,3.80
2023-01-18T01:05:01.055Z,4.53
2023-01-18T01:10:09.844Z,4.60
2023-01-18T01:15:30.627Z,4.00
2023-01-18T01:20:52.960Z,3.80
2023-01-18T01:26:06.544Z,4.17
2023-01-18T01:31:12.846Z,3.70
2023-01-18T01:36:19.373Z,3.50
2023-01-18T01:41:26.877Z,3.93
2023-01-18T01:46:36.655Z,3.93
2023-01-18T01:51:45.341Z,4.47
2023-01-18T01:56:51.448Z,4.00
2023-01-18T02:01:54.887Z,3.90
2023-01-18T02:07:00.026Z,4.43
2023-01-18T02:12:03.895Z,3.47
2023-01-18T02:17:20.456Z,4.17
2023-01-18T02:22:46.249Z,3.83
2023-01-18T02:27:55.880Z,3.20
2023-01-18T02:33:07.760Z,3.80
2023-01-18T02:38:14.928Z,4.13
2023-01-18T02:43:38.240Z,3.27
2023-01-18T02:48:45.143Z,3.53
2023-01-18T02:53:50.075Z,4.00
2023-01-18T02:58:57.721Z,4.40
2023-01-18T03:04:09.697Z,3.37
2023-01-18T03:09:21.399Z,3.63
2023-01-18T03:14:37.123Z,3.17
2023-01-18T03:20:07.266Z,3.13
2023-01-18T03:25:14.577Z,3.30
2023-01-18T03:30:35.596Z,3.07
2023-01-18T03:35:42.248Z,3.47
2023-01-18T03:40:45.857Z,2.70
2023-01-18T03:45:50.975Z,3.27
2023-01-18T03:51:01.884Z,3.13
2023-01-18T03:56:11.360Z,2.73
2023-01-18T04:01:15.269Z,2.60
2023-01-18T04:06:22.924Z,2.60
2023-01-18T04:11:26.384Z,3.07
2023-01-18T04:16:29.986Z,2.57
2023-01-18T04:21:34.731Z,3.17
2023-01-18T04:26:38.153Z,2.70
2023-01-18T04:31:41.641Z,2.87
2023-01-18T04:36:46.685Z,3.20
2023-01-18T04:41:50.071Z,3.20
2023-01-18T04:46:53.427Z,2.80
2023-01-18T04:51:58.249Z,2.87
2023-01-18T04:57:01.793Z,3.57
2023-01-18T05:02:05.523Z,3.30
2023-01-18T05:07:10.751Z,3.50
2023-01-18T05:12:14.167Z,3.63
2023-01-18T05:17:17.661Z,3.40
2023-01-18T05:22:22.853Z,3.57
2023-01-18T05:27:26.253Z,3.80
2023-01-18T05:32:29.592Z,3.00
2023-01-18T05:37:34.833Z,3.33
2023-01-18T05:42:38.509Z,3.00
2023-01-18T05:47:42.240Z,3.37
2023-01-18T05:52:47.140Z,3.53
2023-01-18T05:57:50.472Z,3.20
2023-01-18T06:02:54.507Z,2.97
2023-01-18T06:07:59.655Z,3.70
2023-01-18T06:13:03.403Z,3.60
2023-01-18T06:18:08.305Z,3.37
2023-01-18T06:23:13.511Z,3.27
2023-01-18T06:28:16.921Z,2.80
2023-01-18T06:33:20.618Z,3.77
2023-01-18T06:38:25.394Z,3.80
2023-01-18T06:43:29.374Z,3.20
2023-01-18T06:48:32.686Z,3.63
2023-01-18T06:53:38.040Z,4.10
2023-01-18T06:58:42.201Z,2.90
2023-01-18T07:03:45.851Z,4.07
2023-01-18T07:08:51.285Z,3.40
2023-01-18T07:13:54.782Z,3.57
2023-01-18T07:19:00.743Z,4.70
2023-01-18T07:24:06.439Z,3.37
2023-01-18T07:29:10.138Z,4.60
2023-01-18T07:34:13.585Z,3.63
2023-01-18T07:39:18.371Z,3.60
2023-01-18T07:44:22.150Z,3.70
2023-01-18T07:49:25.667Z,3.13
2023-01-18T07:54:30.521Z,3.50
2023-01-18T07:59:33.869Z,4.23
2023-01-18T08:04:37.276Z,3.83
2023-01-18T08:09:42.335Z,3.43
2023-01-18T08:14:46.298Z,3.30
2023-01-18T08:19:49.715Z,4.17
2023-01-18T08:24:54.723Z,3.53
2023-01-18T08:29:58.139Z,3.50
2023-01-18T08:35:01.958Z,4.03
2023-01-18T08:40:09.750Z,3.10
2023-01-18T08:45:13.635Z,3.30
2023-01-18T08:50:17.235Z,3.40
2023-01-18T08:55:23.854Z,3.70
2023-01-18T09:00:29.990Z,3.63
2023-01-18T09:05:35.174Z,3.57
2023-01-18T09:10:39.985Z,3.03
2023-01-18T09:15:43.384Z,3.10
2023-01-18T09:20:46.790Z,3.53
2023-01-18T09:26:02.939Z,3.17
2023-01-18T09:31:08.934Z,3.50
2023-01-18T09:36:14.628Z,3.47
2023-01-18T09:41:29.319Z,4.30
2023-01-18T09:46:36.233Z,3.40
2023-01-18T09:51:46.765Z,2.97
2023-01-18T09:57:01.542Z,3.30
2023-01-18T10:02:16.518Z,3.63
2023-01-18T10:07:21.401Z,3.47
2023-01-18T10:12:35.776Z,3.20
2023-01-18T10:17:41.655Z,3.37
2023-01-18T10:22:50.268Z,2.73
2023-01-18T10:28:26.716Z,2.80
2023-01-18T10:33:34.514Z,2.90
2023-01-18T10:38:38.705Z,2.33
2023-01-18T10:43:44.751Z,2.53
2023-01-18T10:48:50.366Z,2.43
2023-01-18T10:53:53.837Z,3.57
2023-01-18T10:59:00.922Z,3.40
2023-01-18T11:04:07.790Z,2.70
2023-01-18T11:09:48.556Z,2.50
2023-01-18T11:14:53.356Z,2.50
2023-01-18T11:20:06.775Z,2.43
2023-01-18T11:25:17.912Z,2.50
2023-01-18T11:30:25.522Z,3.03
2023-01-18T11:35:34.362Z,2.47
2023-01-18T11:40:38.919Z,2.57
2023-01-18T11:45:51.173Z,2.47
2023-01-18T11:50:59.128Z,2.83
2023-01-18T11:56:07.885Z,3.07
2023-01-18T12:01:46.064Z,2.97
2023-01-18T12:06:57.409Z,3.05
2023-01-18T12:12:19.995Z,2.23
2023-01-18T12:18:07.834Z,3.10
2023-01-18T13:53:57.314Z,2.47
2023-01-18T13:59:04.595Z,2.77
2023-01-18T14:04:32.943Z,2.50
2023-01-18T14:09:42.254Z,2.47
2023-01-18T14:14:56.900Z,2.30
2023-01-18T14:20:28.649Z,3.13
2023-01-18T14:25:58.997Z,2.63
2023-01-18T14:31:04.367Z,2.70
2023-01-18T14:36:09.361Z,2.47
2023-01-18T14:41:19.129Z,3.33
2023-01-18T14:46:25.943Z,2.87
2023-01-18T14:51:32.215Z,3.23
2023-01-18T14:56:43.075Z,2.60
2023-01-18T15:01:54.323Z,3.17
2023-01-18T15:07:01.728Z,3.40
2023-01-18T15:12:11.156Z,3.07
2023-01-18T15:17:21.992Z,3.33
2023-01-18T15:22:30.591Z,2.97
2023-01-18T15:27:35.398Z,3.03
2023-01-18T15:32:39.089Z,3.50
2023-01-18T15:37:43.008Z,3.53
2023-01-18T15:42:51.213Z,3.07
2023-01-18T15:47:56.651Z,3.63
2023-01-18T15:53:12.014Z,3.90
2023-01-18T15:58:32.888Z,4.47
2023-01-18T16:03:39.320Z,2.90
2023-01-18T16:09:10.521Z,3.13
2023-01-18T16:14:25.465Z,3.57
2023-01-18T16:19:32.932Z,4.20
2023-01-18T16:24:41.180Z,3.20
2023-01-18T16:29:48.273Z,3.23
2023-01-18T16:34:52.702Z,3.77
2023-01-18T16:39:56.720Z,3.80
2023-01-18T16:45:03.241Z,3.63
2023-01-18T16:50:15.458Z,3.77
2023-01-18T16:55:19.729Z,4.43
2023-01-18T17:00:28.185Z,3.33
2023-01-18T17:05:32.137Z,3.90
2023-01-18T17:10:38.838Z,4.43
2023-01-18T17:15:45.633Z,3.70
2023-01-18T17:20:49.289Z,3.77
2023-01-18T17:25:53.053Z,4.00
2023-01-18T17:30:58.076Z,4.60
2023-01-18T17:41:22.967Z,4.77
2023-01-18T17:46:35.496Z,3.70
2023-01-18T17:51:39.880Z,4.80
2023-01-18T17:56:47.166Z,5.23
2023-01-18T18:01:52.176Z,4.97
2023-01-18T18:06:58.654Z,4.80
2023-01-18T18:12:02.630Z,5.27
2023-01-18T18:17:09.195Z,5.07
2023-01-18T18:22:12.988Z,4.63
2023-01-18T18:27:17.064Z,5.50
2023-01-18T18:32:22.129Z,5.23
2023-01-18T18:37:25.632Z,4.53
2023-01-18T18:42:29.493Z,4.53
2023-01-18T18:47:35.621Z,4.30
2023-01-18T18:52:41.037Z,4.93
2023-01-18T18:57:44.919Z,5.00
2023-01-18T19:02:50.342Z,4.50
2023-01-18T19:07:56.075Z,5.10
2023-01-18T19:13:00.284Z,4.93
2023-01-18T19:18:05.836Z,5.03
2023-01-18T19:23:12.061Z,5.90
2023-01-18T19:28:16.349Z,5.30
2023-01-18T19:33:21.323Z,4.70
2023-01-18T19:38:24.923Z,4.03
2023-01-18T19:43:28.449Z,4.53
2023-01-18T19:48:34.444Z,4.63
2023-01-18T19:53:37.948Z,4.47
2023-01-18T19:58:42.214Z,5.57
2023-01-18T20:03:47.335Z,4.33
2023-01-18T20:08:53.432Z,4.60
2023-01-18T20:13:57.356Z,4.83
2023-01-18T20:19:02.256Z,3.97
2023-01-18T20:24:06.773Z,4.80
2023-01-18T20:29:10.516Z,4.43
2023-01-18T20:34:15.280Z,5.23
2023-01-18T20:39:19.437Z,4.00
2023-01-18T20:44:24.795Z,5.37
2023-01-18T20:49:37.690Z,4.40
2023-01-18T20:54:42.178Z,4.27
2023-01-18T20:59:45.529Z,3.80
2023-01-18T21:04:50.280Z,4.43
2023-01-18T21:09:53.957Z,4.40
2023-01-18T21:14:57.574Z,3.77
2023-01-18T21:20:02.418Z,5.00
2023-01-18T21:25:08.777Z,3.73
2023-01-18T21:30:13.995Z,4.33
2023-01-18T21:35:19.269Z,4.03
2023-01-18T21:40:22.626Z,4.40
2023-01-18T21:45:54.897Z,4.50
2023-01-18T21:51:19.893Z,3.53
2023-01-18T21:56:23.670Z,3.67
2023-01-18T22:01:34.062Z,5.97
2023-01-18T22:06:39.801Z,3.80
2023-01-18T22:11:44.160Z,3.87
2023-01-18T22:16:47.897Z,4.37
2023-01-18T22:21:52.775Z,4.20
2023-01-18T22:26:56.147Z,3.80
2023-01-18T22:32:00.109Z,3.20
2023-01-18T22:37:05.760Z,4.17
2023-01-18T22:42:09.115Z,4.07
2023-01-18T22:47:12.911Z,3.47
2023-01-18T22:52:18.090Z,4.10
2023-01-18T22:57:21.690Z,4.07
2023-01-18T23:02:25.300Z,4.00
2023-01-18T23:07:30.315Z,4.27
2023-01-18T23:12:34.061Z,4.20
2023-01-18T23:17:39.888Z,3.90
2023-01-18T23:22:45.860Z,3.80
2023-01-18T23:27:49.371Z,4.13
2023-01-18T23:32:53.144Z,3.63
2023-01-18T23:37:58.290Z,3.60
2023-01-18T23:43:19.319Z,3.30
2023-01-18T23:48:40.121Z,3.60
2023-01-18T23:54:02.221Z,4.07
2023-01-18T23:59:05.897Z,4.40
